Ginys del Meteocat

Dades de l'estació automàtica Port de Barcelona - Bocana Sud

?
?
Resum diari 15:00 TU
Dades diàries de l'estació meteorològica
Ratxa màxima del vent (10 m) 42.8 km/h - 204º 14:34 TU

El tram horari està expressat en Temps Universal (TU). Cal sumar una hora en horari d'hivern i dues en horari d'estiu per passar a l'hora oficial.

Port de Barcelona - Bocana Sud

Metadades estació meteorol´gica
Municipi El Prat de Llobregat
Comarca Baix Llobregat
Altitud 3 m
Data alta 08.04.2015
Estat actual Operativa
Dades de període
Període
TU
VVM (10 m)
km/h
DVM (10 m)
graus
VVX (10 m)
km/h
00:00 - 00:30 7.2 271 9.7
00:30 - 01:00 6.1 273 10.8
01:00 - 01:30 8.6 268 12.2
01:30 - 02:00 8.3 266 10.8
02:00 - 02:30 6.1 273 8.6
02:30 - 03:00 7.6 271 10.4
03:00 - 03:30 8.6 274 13.0
03:30 - 04:00 10.4 277 13.0
04:00 - 04:30 6.5 242 10.4
04:30 - 05:00 8.6 258 13.7
05:00 - 05:30 13.7 262 17.6
05:30 - 06:00 15.5 277 21.6
06:00 - 06:30 15.5 269 19.1
06:30 - 07:00 14.4 258 17.6
07:00 - 07:30 15.8 263 22.3
07:30 - 08:00 11.5 276 19.8
08:00 - 08:30 9.4 284 14.8
08:30 - 09:00 3.2 302 9.0
09:00 - 09:30 (s/d) (s/d) (s/d)
09:30 - 10:00 2.5 189 10.1
10:00 - 10:30 10.1 234 15.5
10:30 - 11:00 10.4 190 15.1
11:00 - 11:30 16.2 200 22.0
11:30 - 12:00 18.0 193 21.6
12:00 - 12:30 19.4 190 28.4
12:30 - 13:00 27.4 200 32.0
13:00 - 13:30 28.1 194 33.1
13:30 - 14:00 29.5 203 36.4
14:00 - 14:30 32.4 204 41.0
14:30 - 15:00 33.1 210 42.8
15:00 - 15:30 31.0 213 42.5
15:30 - 16:00 (s/d) (s/d) (s/d)

Les dades en taronja només han passat un control de qualitat automàtic. Resta pendent la seva validació definitiva.